createdAt,value
2022-07-28T00:01:22.499Z,10.00
2022-07-28T00:03:50.728Z,10.00
2022-07-28T00:06:18.997Z,10.00
2022-07-28T00:08:47.605Z,9.90
2022-07-28T00:11:16.327Z,9.90
2022-07-28T00:13:45.934Z,9.90
2022-07-28T00:16:14.240Z,9.90
2022-07-28T00:18:42.571Z,9.90
2022-07-28T00:21:10.808Z,9.90
2022-07-28T00:23:39.862Z,9.90
2022-07-28T00:26:09.334Z,9.90
2022-07-28T00:28:37.972Z,9.80
2022-07-28T00:31:11.140Z,9.80
2022-07-28T00:33:41.022Z,9.80
2022-07-28T00:36:11.618Z,9.80
2022-07-28T00:38:44.107Z,9.80
2022-07-28T00:41:13.092Z,9.80
2022-07-28T00:43:43.239Z,9.80
2022-07-28T00:46:14.287Z,9.80
2022-07-28T00:48:46.145Z,9.70
2022-07-28T00:51:16.378Z,9.70
2022-07-28T00:53:45.523Z,9.70
2022-07-28T00:56:14.687Z,9.60
2022-07-28T00:58:43.317Z,9.60
2022-07-28T01:01:15.948Z,9.70
2022-07-28T01:03:46.807Z,9.60
2022-07-28T01:06:27.342Z,9.60
2022-07-28T01:09:03.032Z,9.60
2022-07-28T01:11:43.188Z,9.60
2022-07-28T01:14:18.119Z,9.60
2022-07-28T01:16:54.697Z,9.50
2022-07-28T01:19:38.379Z,9.50
2022-07-28T01:22:10.620Z,9.50
2022-07-28T01:24:53.766Z,9.50
2022-07-28T01:27:37.460Z,9.50
2022-07-28T01:30:09.416Z,9.40
2022-07-28T01:32:44.104Z,9.40
2022-07-28T01:35:17.053Z,9.50
2022-07-28T01:37:48.312Z,9.50
2022-07-28T01:40:20.944Z,9.50
2022-07-28T01:42:52.736Z,9.40
2022-07-28T01:45:22.535Z,9.50
2022-07-28T01:47:54.235Z,9.40
2022-07-28T01:50:25.826Z,9.50
2022-07-28T01:52:56.817Z,9.50
2022-07-28T01:55:26.836Z,9.50
2022-07-28T01:57:57.795Z,9.50
2022-07-28T02:00:27.846Z,9.40
2022-07-28T02:02:59.149Z,9.40
2022-07-28T02:05:29.641Z,9.40
2022-07-28T02:08:00.408Z,9.50
2022-07-28T02:10:30.131Z,9.50
2022-07-28T02:13:01.185Z,9.40
2022-07-28T02:15:30.765Z,9.40
2022-07-28T02:18:01.743Z,9.30
2022-07-28T02:20:31.240Z,9.30
2022-07-28T02:22:59.811Z,9.20
2022-07-28T02:25:30.820Z,9.20
2022-07-28T02:28:03.225Z,9.20
2022-07-28T02:30:35.433Z,9.20
2022-07-28T02:33:12.655Z,9.10
2022-07-28T02:35:48.886Z,9.10
2022-07-28T02:38:23.860Z,9.00
2022-07-28T02:40:57.548Z,9.00
2022-07-28T02:43:50.151Z,9.00
2022-07-28T02:46:22.166Z,9.00
2022-07-28T02:48:57.777Z,9.00
2022-07-28T02:51:29.563Z,8.90
2022-07-28T02:53:59.369Z,8.90
2022-07-28T02:56:30.103Z,8.80
2022-07-28T02:58:59.693Z,8.80
2022-07-28T03:01:28.423Z,8.80
2022-07-28T03:03:58.950Z,8.80
2022-07-28T03:06:28.791Z,8.80
2022-07-28T03:08:57.725Z,8.90
2022-07-28T03:11:27.292Z,8.80
2022-07-28T03:13:56.090Z,8.70
2022-07-28T03:16:24.398Z,8.60
2022-07-28T03:18:52.793Z,8.60
2022-07-28T03:21:22.335Z,8.50
2022-07-28T03:23:52.580Z,8.50
2022-07-28T03:26:26.590Z,8.50
2022-07-28T03:28:58.413Z,8.50
2022-07-28T03:31:28.558Z,8.50
2022-07-28T03:33:57.553Z,8.50
2022-07-28T03:36:33.605Z,8.50
2022-07-28T03:39:04.883Z,8.50
2022-07-28T03:41:34.523Z,8.60
2022-07-28T03:44:03.530Z,8.60
2022-07-28T03:46:31.799Z,8.50
2022-07-28T03:49:00.190Z,8.50
2022-07-28T03:51:29.820Z,8.50
2022-07-28T03:53:57.900Z,8.50
2022-07-28T03:56:26.021Z,8.60
2022-07-28T03:58:54.198Z,8.60
2022-07-28T04:01:22.413Z,8.60
2022-07-28T04:03:50.529Z,8.50
2022-07-28T04:06:18.726Z,8.50
2022-07-28T04:08:48.106Z,8.50
2022-07-28T04:11:16.180Z,8.40
2022-07-28T04:13:44.213Z,8.40
2022-07-28T04:16:12.360Z,8.40
2022-07-28T04:18:40.872Z,8.50
2022-07-28T04:21:08.976Z,8.50
2022-07-28T04:23:37.079Z,8.50
2022-07-28T04:26:06.701Z,8.50
2022-07-28T04:28:34.945Z,8.60
2022-07-28T04:31:03.185Z,8.60
2022-07-28T04:33:31.544Z,8.60
2022-07-28T04:36:00.797Z,8.60
2022-07-28T04:38:29.358Z,8.70
2022-07-28T04:40:57.555Z,8.70
2022-07-28T04:43:27.254Z,8.80
2022-07-28T04:45:55.359Z,8.90
2022-07-28T04:48:24.012Z,9.00
2022-07-28T04:50:53.638Z,9.20
2022-07-28T04:53:22.747Z,9.30
2022-07-28T04:55:53.474Z,9.50
2022-07-28T04:58:23.510Z,9.90
2022-07-28T05:00:53.667Z,10.20
2022-07-28T05:03:22.216Z,10.60
2022-07-28T05:05:54.620Z,10.90
2022-07-28T05:08:25.955Z,11.40
2022-07-28T05:10:56.076Z,11.90
2022-07-28T05:13:25.335Z,12.50
2022-07-28T05:15:57.304Z,13.20
2022-07-28T05:18:25.330Z,14.00
2022-07-28T05:20:53.430Z,14.60
2022-07-28T05:23:21.456Z,15.20
2022-07-28T05:25:49.620Z,15.40
2022-07-28T05:28:17.666Z,15.20
2022-07-28T05:30:45.776Z,15.00
2022-07-28T05:33:17.594Z,15.00
2022-07-28T05:35:53.552Z,15.00
2022-07-28T05:38:22.084Z,15.00
2022-07-28T05:40:50.296Z,14.90
2022-07-28T05:43:18.492Z,15.30
2022-07-28T05:45:46.977Z,15.80
2022-07-28T05:48:19.446Z,16.10
2022-07-28T05:50:47.739Z,16.40
2022-07-28T05:53:15.967Z,16.60
2022-07-28T05:56:01.095Z,17.10
2022-07-28T05:58:30.523Z,17.70
2022-07-28T06:01:00.953Z,18.60
2022-07-28T06:03:33.591Z,19.30
2022-07-28T06:06:15.885Z,20.10
2022-07-28T06:08:45.805Z,20.60
2022-07-28T06:11:18.242Z,21.10
2022-07-28T06:13:50.568Z,21.50
2022-07-28T06:16:19.728Z,22.00
2022-07-28T06:18:49.314Z,22.30
2022-07-28T06:21:17.452Z,22.50
2022-07-28T06:23:45.978Z,22.70
2022-07-28T06:26:14.076Z,23.00
2022-07-28T06:28:42.114Z,23.20
2022-07-28T06:31:10.201Z,23.40
2022-07-28T06:33:38.399Z,23.70
2022-07-28T06:36:08.044Z,23.70
2022-07-28T06:38:36.422Z,23.80
2022-07-28T06:41:04.532Z,24.00
2022-07-28T06:43:38.349Z,24.10
2022-07-28T06:46:07.144Z,24.20
2022-07-28T06:48:37.514Z,24.60
2022-07-28T06:51:07.343Z,24.90
2022-07-28T06:53:35.532Z,25.60
2022-07-28T06:56:05.043Z,25.40
2022-07-28T06:58:33.450Z,25.30
2022-07-28T07:01:02.510Z,24.90
2022-07-28T07:03:30.738Z,25.00
2022-07-28T07:05:58.811Z,25.10
2022-07-28T07:08:28.288Z,25.40
2022-07-28T07:10:56.934Z,26.20
2022-07-28T07:13:25.286Z,26.30
2022-07-28T07:15:53.547Z,26.80
2022-07-28T07:18:22.026Z,26.70
2022-07-28T07:20:50.109Z,27.00
2022-07-28T07:23:18.251Z,26.90
2022-07-28T07:25:47.647Z,26.00
2022-07-28T07:28:15.719Z,25.90
2022-07-28T07:30:44.866Z,25.80
2022-07-28T07:33:13.032Z,25.90
2022-07-28T07:35:41.096Z,26.30
2022-07-28T07:38:09.128Z,26.70
2022-07-28T07:40:37.946Z,27.30
2022-07-28T07:43:07.443Z,27.80
2022-07-28T07:45:35.592Z,27.70
2022-07-28T07:48:04.451Z,27.40
2022-07-28T07:50:32.625Z,27.60
2022-07-28T07:53:01.009Z,28.30
2022-07-28T07:55:34.297Z,28.40
2022-07-28T07:58:07.648Z,28.10
2022-07-28T08:00:35.799Z,27.70
2022-07-28T08:03:04.055Z,28.30
2022-07-28T08:05:39.421Z,28.60
2022-07-28T08:08:07.987Z,28.60
2022-07-28T08:10:36.536Z,29.00
2022-07-28T08:13:05.180Z,28.60
2022-07-28T08:15:35.647Z,29.30
2022-07-28T08:18:04.501Z,29.90
2022-07-28T08:20:32.608Z,29.70
2022-07-28T08:23:00.727Z,29.90
2022-07-28T08:25:29.058Z,29.90
2022-07-28T08:27:57.162Z,30.20
2022-07-28T08:30:30.233Z,29.80
2022-07-28T08:33:03.093Z,29.60
2022-07-28T08:35:34.012Z,29.50
2022-07-28T08:38:03.358Z,28.90
2022-07-28T08:40:33.214Z,28.80
2022-07-28T08:43:10.340Z,28.50
2022-07-28T08:45:40.836Z,28.40
2022-07-28T08:48:13.498Z,28.90
2022-07-28T08:50:43.166Z,30.10
2022-07-28T08:53:12.164Z,30.90
2022-07-28T08:55:41.062Z,31.00
2022-07-28T08:58:09.602Z,30.80
2022-07-28T09:00:37.785Z,30.10
2022-07-28T09:03:06.759Z,30.20
2022-07-28T09:05:37.781Z,30.40
2022-07-28T09:08:06.790Z,30.70
2022-07-28T09:10:34.864Z,30.70
2022-07-28T09:13:02.962Z,30.40
2022-07-28T09:15:32.687Z,30.40
2022-07-28T09:18:01.719Z,30.40
2022-07-28T09:20:30.462Z,30.30
2022-07-28T09:23:01.146Z,30.00
2022-07-28T09:25:30.810Z,30.00
2022-07-28T09:28:08.091Z,29.70
2022-07-28T09:30:38.432Z,28.50
2022-07-28T09:33:42.990Z,28.10
2022-07-28T09:36:16.282Z,28.40
2022-07-28T09:38:46.207Z,28.90
2022-07-28T09:41:18.522Z,29.60
2022-07-28T09:43:53.935Z,29.70
2022-07-28T09:46:26.132Z,29.70
2022-07-28T09:48:58.225Z,30.00
2022-07-28T09:51:28.855Z,29.80
2022-07-28T09:54:08.689Z,29.30
2022-07-28T09:56:37.572Z,28.80
2022-07-28T09:59:05.787Z,28.30
2022-07-28T10:01:50.737Z,28.10
2022-07-28T10:04:29.989Z,28.40
2022-07-28T10:07:02.934Z,28.20
2022-07-28T10:09:32.854Z,28.20
2022-07-28T10:12:22.998Z,28.00
2022-07-28T10:14:53.048Z,28.10
2022-07-28T10:17:26.291Z,28.30
2022-07-28T10:19:57.612Z,28.70
2022-07-28T10:22:31.972Z,28.80
2022-07-28T10:25:03.250Z,28.30
2022-07-28T10:27:32.799Z,27.90
2022-07-28T10:30:02.083Z,27.80
2022-07-28T10:32:33.993Z,28.30
2022-07-28T10:35:05.314Z,28.40
2022-07-28T10:37:39.982Z,28.70
2022-07-28T10:40:11.369Z,28.90
2022-07-28T10:42:40.818Z,28.80
2022-07-28T10:45:12.028Z,28.60
2022-07-28T10:47:40.607Z,28.30
2022-07-28T10:50:09.827Z,28.30
2022-07-28T10:52:50.147Z,28.70
2022-07-28T10:55:32.035Z,28.90
2022-07-28T10:58:11.991Z,28.90
2022-07-28T11:01:01.810Z,28.30
2022-07-28T11:03:39.944Z,28.40
2022-07-28T11:06:28.544Z,28.50
2022-07-28T11:08:57.484Z,28.90
2022-07-28T11:11:45.098Z,29.40
2022-07-28T11:14:37.716Z,29.90
2022-07-28T11:17:24.334Z,30.30
2022-07-28T11:20:26.784Z,30.90
2022-07-28T11:22:51.601Z,31.20
2022-07-28T11:25:22.442Z,31.10
2022-07-28T11:28:05.716Z,30.40
2022-07-28T11:30:55.335Z,29.70
2022-07-28T11:33:24.812Z,29.40
2022-07-28T11:36:02.506Z,29.30
2022-07-28T11:38:30.597Z,29.50
2022-07-28T11:40:58.741Z,29.60
2022-07-28T11:43:37.504Z,29.40
2022-07-28T11:46:34.609Z,29.40
2022-07-28T11:49:17.826Z,30.00
2022-07-28T11:52:10.953Z,30.60
2022-07-28T11:54:40.962Z,30.80
2022-07-28T11:57:11.654Z,30.50
2022-07-28T12:00:08.316Z,30.60
2022-07-28T12:02:36.632Z,30.60
2022-07-28T12:05:08.518Z,30.40
2022-07-28T12:07:42.865Z,30.50
2022-07-28T12:10:53.833Z,30.60
2022-07-28T12:13:28.553Z,30.30
2022-07-28T12:15:58.089Z,30.50
2022-07-28T12:18:26.194Z,30.70
2022-07-28T12:20:55.541Z,30.60
2022-07-28T12:23:45.620Z,30.60
2022-07-28T12:26:40.510Z,30.10
2022-07-28T12:29:13.049Z,29.70
2022-07-28T12:31:54.215Z,30.20
2022-07-28T12:34:24.378Z,30.70
2022-07-28T12:36:58.026Z,30.60
2022-07-28T12:39:26.848Z,30.40
2022-07-28T12:42:04.127Z,30.80
2022-07-28T12:44:37.240Z,31.00
2022-07-28T12:47:08.840Z,30.80
2022-07-28T12:49:37.868Z,30.20
2022-07-28T12:52:21.579Z,30.00
2022-07-28T12:54:54.406Z,30.40
2022-07-28T12:57:48.830Z,30.60
2022-07-28T13:00:20.338Z,31.00
2022-07-28T13:02:51.072Z,30.90
2022-07-28T13:05:50.814Z,30.30
2022-07-28T13:08:18.986Z,29.70
2022-07-28T13:10:49.065Z,30.00
2022-07-28T13:13:20.406Z,30.30
2022-07-28T13:16:12.886Z,30.30
2022-07-28T13:18:43.499Z,30.50
2022-07-28T13:21:12.097Z,30.60
2022-07-28T13:23:40.418Z,30.80
2022-07-28T13:26:08.979Z,30.90
2022-07-28T13:28:37.092Z,30.80
2022-07-28T13:31:05.205Z,30.60
2022-07-28T13:33:33.276Z,30.20
2022-07-28T13:36:02.703Z,30.30
2022-07-28T13:38:31.142Z,30.20
2022-07-28T13:40:59.206Z,29.70
2022-07-28T13:43:35.878Z,29.80
2022-07-28T13:46:05.366Z,30.10
2022-07-28T13:48:35.765Z,30.20
2022-07-28T13:51:05.359Z,30.00
2022-07-28T13:53:35.822Z,30.20
2022-07-28T13:56:08.918Z,30.20
2022-07-28T13:58:37.534Z,29.80
2022-07-28T14:01:07.373Z,29.80
2022-07-28T14:03:55.846Z,29.80
2022-07-28T14:06:25.697Z,30.00
2022-07-28T14:08:53.961Z,30.20
2022-07-28T14:11:22.450Z,30.20
2022-07-28T14:13:52.055Z,30.10
2022-07-28T14:16:20.353Z,29.80
2022-07-28T14:18:49.374Z,29.60
2022-07-28T14:21:18.241Z,29.50
2022-07-28T14:23:47.736Z,29.80
2022-07-28T14:26:34.934Z,30.00
2022-07-28T14:29:04.774Z,29.80
2022-07-28T14:31:40.109Z,29.80
2022-07-28T14:34:08.313Z,29.70
2022-07-28T14:36:36.510Z,29.40
2022-07-28T14:39:12.263Z,29.30
2022-07-28T14:41:42.618Z,29.20
2022-07-28T14:44:10.789Z,29.20
2022-07-28T14:46:44.039Z,29.10
2022-07-28T14:49:12.321Z,28.90
2022-07-28T14:51:44.925Z,28.80
2022-07-28T14:54:15.041Z,29.10
2022-07-28T14:56:43.515Z,29.30
2022-07-28T14:59:11.658Z,29.40
2022-07-28T15:01:40.157Z,29.30
2022-07-28T15:04:10.065Z,29.30
2022-07-28T15:06:38.239Z,29.00
2022-07-28T15:09:07.139Z,29.00
2022-07-28T15:11:37.469Z,29.00
2022-07-28T15:14:05.619Z,28.80
2022-07-28T15:16:33.879Z,28.50
2022-07-28T15:19:02.449Z,28.40
2022-07-28T15:21:35.864Z,28.40
2022-07-28T15:24:05.173Z,28.30
2022-07-28T15:26:33.526Z,28.10
2022-07-28T15:29:03.097Z,28.10
2022-07-28T15:31:31.447Z,28.10
2022-07-28T15:34:00.746Z,28.10
2022-07-28T15:36:30.471Z,28.00
2022-07-28T15:38:58.602Z,27.90
2022-07-28T15:41:27.282Z,27.90
2022-07-28T15:43:56.220Z,27.90
2022-07-28T15:46:25.728Z,27.80
2022-07-28T15:48:54.976Z,27.90
2022-07-28T15:51:25.998Z,28.00
2022-07-28T15:53:56.150Z,27.90
2022-07-28T15:56:24.733Z,27.90
2022-07-28T15:58:52.766Z,27.80
2022-07-28T16:01:20.857Z,27.90
2022-07-28T16:03:51.022Z,27.90
2022-07-28T16:06:19.049Z,27.80
2022-07-28T16:08:47.166Z,27.70
2022-07-28T16:11:15.356Z,27.60
2022-07-28T16:13:44.163Z,27.70
2022-07-28T16:16:14.132Z,27.70
2022-07-28T16:18:43.949Z,27.40
2022-07-28T16:21:13.364Z,27.10
2022-07-28T16:23:41.455Z,27.30
2022-07-28T16:26:10.605Z,27.30
2022-07-28T16:28:38.726Z,27.30
2022-07-28T16:31:07.182Z,27.30
2022-07-28T16:33:35.538Z,27.50
2022-07-28T16:36:03.710Z,27.60
2022-07-28T16:38:33.096Z,27.50
2022-07-28T16:41:01.248Z,27.40
2022-07-28T16:43:29.493Z,27.30
2022-07-28T16:45:57.551Z,27.30
2022-07-28T16:48:25.814Z,27.20
2022-07-28T16:50:53.891Z,27.10
2022-07-28T16:53:21.914Z,26.90
2022-07-28T16:55:51.382Z,26.90
2022-07-28T16:58:19.969Z,26.90
2022-07-28T17:00:48.091Z,26.90
2022-07-28T17:03:16.954Z,26.80
2022-07-28T17:05:45.448Z,26.80
2022-07-28T17:08:13.573Z,26.80
2022-07-28T17:10:41.677Z,26.90
2022-07-28T17:13:12.014Z,26.80
2022-07-28T17:15:41.405Z,26.80
2022-07-28T17:18:09.498Z,26.50
2022-07-28T17:20:41.981Z,26.50
2022-07-28T17:23:10.191Z,26.50
2022-07-28T17:26:09.028Z,26.30
2022-07-28T17:28:28.479Z,26.30
2022-07-28T17:30:56.662Z,26.30
2022-07-28T17:33:24.933Z,26.40
2022-07-28T17:35:55.008Z,26.20
2022-07-28T17:38:28.172Z,26.20
2022-07-28T17:41:03.596Z,26.10
2022-07-28T17:43:33.111Z,26.10
2022-07-28T17:46:02.911Z,26.00
2022-07-28T17:48:38.193Z,26.00
2022-07-28T17:51:06.390Z,25.90
2022-07-28T17:53:39.226Z,26.00
2022-07-28T17:56:08.598Z,25.90
2022-07-28T17:58:38.625Z,25.80
2022-07-28T18:01:12.023Z,25.70
2022-07-28T18:03:56.853Z,25.60
2022-07-28T18:06:31.918Z,25.40
2022-07-28T18:09:06.095Z,25.20
2022-07-28T18:11:55.209Z,25.00
2022-07-28T18:14:27.186Z,24.80
2022-07-28T18:16:55.589Z,24.40
2022-07-28T18:19:23.649Z,24.20
2022-07-28T18:21:51.727Z,24.10
2022-07-28T18:24:21.738Z,24.10
2022-07-28T18:26:50.259Z,24.10
2022-07-28T18:29:20.289Z,23.90
2022-07-28T18:31:51.016Z,23.90
2022-07-28T18:34:20.045Z,23.80
2022-07-28T18:36:51.508Z,23.70
2022-07-28T18:39:19.603Z,23.70
2022-07-28T18:41:48.079Z,23.60
2022-07-28T18:44:17.736Z,23.40
2022-07-28T18:46:46.785Z,23.30
2022-07-28T18:49:17.307Z,23.20
2022-07-28T18:51:46.007Z,23.00
2022-07-28T18:54:18.696Z,22.80
2022-07-28T18:56:48.388Z,22.70
2022-07-28T18:59:16.449Z,22.50
2022-07-28T19:01:44.620Z,22.50
2022-07-28T19:04:13.382Z,22.40
2022-07-28T19:06:43.172Z,22.20
2022-07-28T19:09:11.789Z,22.10
2022-07-28T19:11:45.421Z,22.00
2022-07-28T19:14:14.719Z,21.80
2022-07-28T19:16:43.145Z,21.70
2022-07-28T19:19:11.247Z,21.60
2022-07-28T19:21:43.378Z,21.60
2022-07-28T19:24:14.049Z,21.40
2022-07-28T19:26:44.416Z,21.30
2022-07-28T19:29:12.698Z,21.30
2022-07-28T19:31:41.414Z,21.20
2022-07-28T19:34:09.821Z,21.10
2022-07-28T19:36:38.498Z,21.00
2022-07-28T19:39:06.663Z,20.90
2022-07-28T19:41:36.133Z,20.90
2022-07-28T19:44:04.349Z,20.80
2022-07-28T19:46:32.405Z,20.70
2022-07-28T19:49:00.646Z,20.60
2022-07-28T19:51:28.847Z,20.60
2022-07-28T19:53:58.560Z,20.50
2022-07-28T19:56:31.510Z,20.40
2022-07-28T19:59:01.336Z,20.30
2022-07-28T20:01:29.564Z,20.30
2022-07-28T20:04:02.018Z,20.20
2022-07-28T20:06:33.189Z,20.20
2022-07-28T20:09:01.604Z,20.10
2022-07-28T20:11:29.772Z,20.10
2022-07-28T20:13:57.835Z,20.00
2022-07-28T20:16:27.604Z,20.00
2022-07-28T20:18:56.844Z,20.00
2022-07-28T20:21:26.094Z,20.00
2022-07-28T20:23:55.192Z,20.00
2022-07-28T20:26:23.711Z,19.90
2022-07-28T20:28:52.261Z,19.80
2022-07-28T20:31:21.211Z,19.70
2022-07-28T20:33:50.780Z,19.70
2022-07-28T20:36:18.887Z,19.60
2022-07-28T20:38:46.918Z,19.50
2022-07-28T20:41:16.231Z,19.50
2022-07-28T20:43:44.318Z,19.40
2022-07-28T20:46:12.473Z,19.40
2022-07-28T20:48:40.622Z,19.30
2022-07-28T20:51:10.670Z,19.20
2022-07-28T20:53:38.809Z,19.10
2022-07-28T20:56:07.181Z,19.00
2022-07-28T20:58:35.236Z,18.90
2022-07-28T21:01:03.511Z,18.90
2022-07-28T21:03:31.644Z,18.90
2022-07-28T21:05:59.811Z,18.80
2022-07-28T21:08:30.017Z,18.80
2022-07-28T21:10:58.592Z,18.70
2022-07-28T21:13:26.612Z,18.70
2022-07-28T21:15:54.705Z,18.60
2022-07-28T21:18:22.717Z,18.50
2022-07-28T21:20:50.838Z,18.50
2022-07-28T21:23:19.179Z,18.40
2022-07-28T21:25:51.231Z,18.40
2022-07-28T21:28:36.508Z,18.30
2022-07-28T21:31:04.866Z,18.30
2022-07-28T21:33:32.926Z,18.20
2022-07-28T21:36:01.070Z,18.20
2022-07-28T21:38:29.143Z,18.20
2022-07-28T21:40:58.536Z,18.10
2022-07-28T21:43:26.766Z,18.10
2022-07-28T21:45:54.921Z,18.00
2022-07-28T21:48:24.948Z,18.00
2022-07-28T21:50:53.338Z,17.90
2022-07-28T21:53:21.988Z,17.80
2022-07-28T21:55:52.650Z,17.80
2022-07-28T21:58:22.189Z,17.70
2022-07-28T22:00:50.368Z,17.70
2022-07-28T22:03:18.425Z,17.60
2022-07-28T22:05:46.483Z,17.60
2022-07-28T22:08:14.589Z,17.50
2022-07-28T22:10:42.654Z,17.50
2022-07-28T22:13:10.832Z,17.40
2022-07-28T22:15:40.276Z,17.30
2022-07-28T22:18:11.022Z,17.10
2022-07-28T22:20:42.072Z,17.20
2022-07-28T22:23:18.634Z,17.10
2022-07-28T22:25:56.996Z,17.00
2022-07-28T22:28:29.900Z,16.90
2022-07-28T22:31:09.228Z,16.80
2022-07-28T22:33:38.585Z,16.80
2022-07-28T22:36:08.419Z,16.70
2022-07-28T22:38:36.809Z,16.60
2022-07-28T22:41:04.911Z,16.60
2022-07-28T22:43:33.204Z,16.70
2022-07-28T22:46:02.629Z,16.50
2022-07-28T22:48:30.708Z,16.50
2022-07-28T22:50:58.728Z,16.40
2022-07-28T22:53:26.797Z,16.50
2022-07-28T22:55:54.898Z,16.40
2022-07-28T22:58:22.974Z,16.30
2022-07-28T23:00:51.600Z,16.30
2022-07-28T23:03:21.393Z,16.30
2022-07-28T23:05:49.610Z,16.30
2022-07-28T23:08:18.791Z,16.30
2022-07-28T23:10:46.928Z,16.30
2022-07-28T23:13:15.039Z,16.30
2022-07-28T23:15:43.096Z,16.30
2022-07-28T23:18:11.413Z,16.30
2022-07-28T23:20:41.526Z,16.40
2022-07-28T23:23:10.055Z,16.40
2022-07-28T23:25:40.465Z,16.40
2022-07-28T23:28:09.185Z,16.40
2022-07-28T23:30:37.271Z,16.40
2022-07-28T23:33:05.712Z,16.30
2022-07-28T23:35:35.528Z,16.40
2022-07-28T23:38:05.083Z,16.40
2022-07-28T23:40:33.301Z,16.40
2022-07-28T23:43:01.832Z,16.40
2022-07-28T23:45:29.938Z,16.40
2022-07-28T23:47:58.943Z,16.50
2022-07-28T23:50:27.749Z,16.50
2022-07-28T23:52:55.945Z,16.50
2022-07-28T23:55:29.285Z,16.50
2022-07-28T23:57:57.469Z,16.50
